AC0UD Weather Reports


Display with metric or nautical units.
time (UTC)temp
F
wind
direction
speed
MPH
gust
MPH
rain 1hr
in
rain 24hr
in
rain mn
in
humidity
%
barometer
mb
20240416225020 49 48 15.0 27.0 0.19 3.37 3.35 79 1000.9
20240416224020 48 59 15.0 27.0 0.16 3.34 3.32 82 1001.8
20240416223017 47 37 12.0 20.0 0.16 3.33 3.32 86 1002.3
20240416222017 46 71 13.0 27.0 0.15 3.33 3.31 88 1001.3
20240416221018 46 64 20.0 33.0 0.12 3.29 3.27 89 1000.4
20240416220017 45 77 14.0 26.0 0.00 3.18 3.16 91 1000.7
20240416215018 45 84 15.0 21.0 0.00 3.17 3.16 91 1002.7
20240416214041 45 82 11.0 15.0 0.00 3.17 3.16 92 1003.7
20240416213018 45 80 9.0 14.0 0.00 3.17 3.16 92 1004.2
20240416212019 45 82 11.0 14.0 0.00 3.17 3.16 91 1004.2
20240416211019 45 79 9.0 13.0 0.00 3.17 3.16 91 1004.4
20240416210018 45 81 4.0 7.0 0.01 3.17 3.16 90 1005.1
20240416205022 45 187 1.0 3.0 0.01 3.17 3.16 90 1006.4
20240416204019 45 62 7.0 13.0 0.02 3.17 3.16 88 1005.7
20240416203020 46 50 5.0 13.0 0.03 3.17 3.16 87 1005.5
20240416202022 46 143 4.0 8.0 0.05 3.17 3.16 86 1005.5
20240416201019 46 77 14.0 26.0 0.14 3.17 3.16 82 1004.3
20240416200042 46 73 21.0 30.0 0.29 3.17 3.15 79 1004.9
20240416195017 47 56 14.0 25.0 0.47 3.16 3.14 77 1004.7
20240416194020 47 68 22.0 31.0 0.59 3.16 3.14 75 1004.1
20240416193020 47 53 19.0 27.0 0.78 3.14 3.12 73 1004.9
20240416192023 47 65 24.0 35.0 0.88 3.12 3.10 74 1004.7
20240416191020 46 41 21.0 32.0 1.15 3.04 3.02 75 1004.2
20240416190017 46 53 21.0 34.0 1.20 2.87 2.85 75 1004.5
20240416185018 46 60 24.0 34.0 1.05 2.69 2.68 77 1005.0
20240416184019 45 59 24.0 38.0 0.94 2.57 2.55 78 1004.8
20240416183018 46 55 23.0 34.0 0.73 2.36 2.34 78 1006.4
20240416182040 45 53 19.0 36.0 0.62 2.24 2.22 80 1006.5
20240416181019 45 67 26.0 34.0 0.27 1.88 1.87 80 1005.9
20240416180019 46 58 22.0 33.0 0.06 1.67 1.65 79 1007.3
20240416175024 45 37 17.0 30.0 0.03 1.64 1.62 80 1007.7
20240416174022 45 63 18.0 27.0 0.02 1.63 1.61 82 1007.1
20240416173020 45 68 17.0 25.0 0.01 1.62 1.61 83 1007.6
20240416172023 45 67 18.0 27.0 0.01 1.62 1.60 84 1008.7
20240416171017 46 37 13.0 20.0 0.01 1.62 1.60 86 1009.0
20240416170023 46 49 15.0 20.0 0.01 1.62 1.60 85 1009.7
20240416165043 46 66 11.0 23.0 0.01 1.61 1.60 85 1010.1
20240416164022 46 57 11.0 18.0 0.05 1.61 1.60 83 1010.4
20240416163017 47 34 12.0 21.0 0.05 1.61 1.60 77 1010.2
20240416162017 48 125 5.0 19.0 0.05 1.61 1.59 73 1011.1
20240416161023 48 72 16.0 24.0 0.05 1.61 1.59 69 1009.9
20240416160018 49 44 12.0 20.0 0.06 1.61 1.59 67 1010.3
20240416155018 49 43 6.0 13.0 0.06 1.61 1.59 62 1011.4
20240416154018 50 50 6.0 13.0 0.09 1.56 1.55 59 1012.0
20240416153018 50 47 7.0 21.0 0.16 1.56 1.54 57 1011.2
20240416152020 51 34 9.0 18.0 0.24 1.56 1.54 54 1011.1
20240416151019 51 39 14.0 23.0 0.24 1.56 1.54 51 1010.4
20240416150019 51 36 11.0 22.0 0.25 1.55 1.53 51 1010.5
20240416145019 51 47 12.0 27.0 0.25 1.54 1.53 49 1010.5
20240416144020 51 46 13.0 29.0 0.18 1.47 1.46 49 1010.0
20240416143020 51 41 17.0 34.0 0.11 1.40 1.39 49 1009.9
20240416142019 51 25 13.0 21.0 0.08 1.32 1.30 51 1010.9
20240416141020 51 36 14.0 21.0 0.10 1.31 1.30 51 1011.4
20240416140017 51 40 12.0 27.0 0.18 1.30 1.29 50 1012.1
20240416135017 51 49 8.0 16.0 0.32 1.30 1.28 49 1012.4
20240416134021 51 39 13.0 22.0 0.43 1.29 1.28 49 1012.2
20240416133038 51 38 19.0 29.0 0.54 1.29 1.27 48 1012.5
20240416132028 52 43 12.0 22.0 0.53 1.24 1.22 48 1012.7
20240416131021 52 37 15.0 30.0 0.58 1.22 1.20 47 1012.5
20240416130018 52 40 20.0 35.0 0.52 1.12 1.11 48 1012.2
20240416125021 52 30 18.0 27.0 0.42 0.97 0.96 48 1011.8
20240416124018 52 43 22.0 34.0 0.32 0.86 0.85 48 1012.6
20240416123019 52 38 16.0 27.0 0.27 0.75 0.73 49 1013.1
20240416122019 52 55 13.0 26.0 0.26 0.71 0.69 49 1013.5
20240416121024 52 44 14.0 30.0 0.27 0.63 0.62 49 1013.5
20240416120019 52 43 18.0 30.0 0.25 0.60 0.59 49 1012.9
20240416115019 52 43 14.0 27.0 0.23 0.56 0.54 49 1013.3
20240416114019 53 40 21.0 32.0 0.21 0.54 0.52 50 1012.5
20240416113120 53 40 21.0 34.0 0.16 0.48 0.46 50 1012.7
20240416112037 53 47 21.0 36.0 0.16 0.45 0.44 49 1012.5
20240416111032 53 33 16.0 29.0 0.09 0.37 0.35 49 1012.6
20240416110023 54 28 13.0 26.0 0.07 0.35 0.33 48 1012.3
20240416105020 54 48 16.0 27.0 0.07 0.33 0.32 47 1012.4
20240416104027 55 36 14.0 22.0 0.08 0.32 0.31 46 1012.6
20240416103021 55 40 16.0 27.0 0.09 0.32 0.30 45 1012.3
20240416102020 55 43 15.0 23.0 0.07 0.29 0.27 44 1012.5
20240416101018 56 40 11.0 18.0 0.08 0.28 0.26 44 1013.0
20240416100039 56 43 9.0 17.0 0.08 0.28 0.26 43 1012.9
20240416095021 56 36 12.0 23.0 0.06 0.26 0.24 42 1012.9
20240416094018 57 36 12.0 21.0 0.05 0.24 0.22 40 1013.1
20240416093019 57 36 12.0 20.0 0.04 0.23 0.21 39 1013.1
20240416092039 57 44 17.0 26.0 0.03 0.22 0.21 37 1013.6
20240416091019 57 41 11.0 18.0 0.01 0.20 0.18 36 1013.2
20240416090025 57 37 14.0 21.0 0.03 0.20 0.18 35 1012.8
20240416085023 58 33 10.0 14.0 0.04 0.20 0.18 34 1013.2
20240416084040 58 49 10.0 19.0 0.07 0.19 0.18 34 1013.1
20240416083021 57 46 13.0 23.0 0.09 0.19 0.18 34 1012.7
20240416082021 57 42 15.0 22.0 0.10 0.19 0.17 34 1012.6
20240416081037 57 50 17.0 24.0 0.11 0.18 0.17 34 1012.6
20240416080017 57 51 20.0 27.0 0.10 0.17 0.15 34 1012.7
20240416075020 58 51 19.0 26.0 0.11 0.15 0.14 34 1012.9
20240416074027 58 54 19.0 28.0 0.10 0.13 0.11 33 1013.1
20240416073018 58 44 17.0 23.0 0.08 0.10 0.09 33 1013.6
20240416072025 58 45 15.0 24.0 0.07 0.09 0.08 33 1013.6
20240416071018 58 37 18.0 23.0 0.06 0.08 0.06 34 1013.6
20240416070019 58 49 17.0 23.0 0.05 0.07 0.05 34 1014.1
20240416065019 58 59 20.0 26.0 0.02 0.05 0.03 33 1014.2
20240416064039 58 52 17.0 23.0 0.01 0.03 0.01 34 1014.5
20240416063019 58 61 16.0 21.0 0.00 0.02 0.01 34 1014.9
20240416062020 58 59 15.0 20.0 0.00 0.02 0.01 34 1015.2
20240416061020 58 67 14.0 19.0 0.00 0.02 0.01 34 1015.3
20240416060017 59 63 13.0 17.0 0.00 0.02 0.00 33 1015.5
20240416055020 59 57 12.0 18.0 0.01 0.02 0.00 33 1015.6
20240416054023 59 64 14.0 19.0 0.01 0.02 0.00 33 1015.5
20240416053043 60 57 15.0 20.0 0.01 0.02 0.00 32 1015.6
20240416052024 60 72 18.0 24.0 0.01 0.02 0.00 31 1015.5
20240416051021 61 47 15.0 21.0 0.01 0.02 0.00 31 1015.8
20240416050021 61 42 16.0 23.0 0.00 0.02 0.00 30 1015.8
20240416045021 61 50 13.0 19.0 0.00 0.02 0.02 30 1015.8
20240416044021 61 47 12.0 20.0 0.00 0.01 0.01 30 1015.7
20240416043018 61 57 12.0 21.0 0.00 0.01 0.01 30 1015.8
20240416042031 61 54 12.0 20.0 0.00 0.01 0.01 31 1015.7
20240416041019 61 53 8.0 17.0 0.00 0.01 0.01 31 1015.9
20240416040019 62 49 9.0 15.0 0.01 0.01 0.01 31 1015.8
20240416035019 62 49 9.0 16.0 0.01 0.01 0.01 31 1016.0
20240416034019 62 43 14.0 18.0 0.01 0.01 0.01 30 1015.7
20240416033020 62 43 15.0 22.0 0.01 0.01 0.01 31 1015.8
20240416032043 62 54 13.0 21.0 0.01 0.01 0.01 31 1015.7
20240416031024 62 46 17.0 24.0 0.01 0.01 0.01 31 1015.8
20240416030020 62 52 14.0 22.0 0.00 0.01 0.01 31 1015.9
20240416025020 62 52 12.0 18.0 0.00 0.00 0.00 31 1016.1
20240416024017 62 34 14.0 20.0 0.00 0.00 0.00 31 1016.0
20240416023029 62 53 16.0 22.0 0.00 0.00 0.00 31 1016.0
20240416022023 63 46 16.0 22.0 0.00 0.00 0.00 31 1016.1
20240416021024 63 61 11.0 20.0 0.00 0.00 0.00 30 1016.4
20240416020018 63 62 12.0 19.0 0.00 0.00 0.00 30 1016.3
20240416015018 63 54 12.0 20.0 0.00 0.00 0.00 31 1016.4
20240416014019 63 58 12.0 17.0 0.00 0.00 0.00 31 1016.2
20240416013019 63 67 15.0 19.0 0.00 0.00 0.00 31 1016.1
20240416012022 63 60 15.0 20.0 0.00 0.00 0.00 31 1016.1
20240416011019 63 64 12.0 17.0 0.00 0.00 0.00 31 1016.2
20240416010019 63 64 13.0 19.0 0.00 0.00 0.00 31 1016.3
20240416005040 63 61 12.0 18.0 0.00 0.00 0.00 31 1016.3
20240416004019 63 62 11.0 16.0 0.00 0.00 0.00 31 1016.2
20240416003020 64 71 9.0 14.0 0.00 0.00 0.00 32 1016.3
20240416002017 64 32 9.0 15.0 0.00 0.00 0.00 32 1016.4
20240416001045 64 35 10.0 14.0 0.00 0.00 0.00 32 1016.5
20240416000020 64 48 9.0 15.0 0.00 0.00 0.00 32 1016.5
20240415235023 64 48 9.0 19.0 0.00 0.00 0.00 33 1016.6
20240415234019 64 54 13.0 18.0 0.00 0.00 0.00 32 1016.6
20240415233018 64 59 9.0 13.0 0.00 0.00 0.00 32 1016.9
20240415232018 64 23 9.0 14.0 0.00 0.00 0.00 32 1016.9
20240415231047 64 51 9.0 15.0 0.00 0.00 0.00 32 1017.0
20240415230022 64 49 10.0 16.0 0.00 0.00 0.00 31 1017.1